Strona główna
METAR-TAF:

METAR-TAF

Lotnisko :

Griffiss_Air_Force_Base

Rome, Nowy Jork, Stany Zjednoczone

Szerokość geograficzna: 43-14N, Długość geograficzna: 075-24W, wysokość: 154 m

Aktualna obserwacja pogody

Raport powstał 12 minut temu, godzina 08:53 UTC
Wiatr 6 kt od wschód
Temperatura 16°C
Wilgotność 88%
Ciśnienie 1021 hPa
Widzialność: 16.1 km
Rozproszone chmury na wysokości 7000 ft

METAR: KRME 200853Z AUTO 09006KT 10SM SCT070 16/14 A3016 RMK AO2 SLP209 T01610144 51008

czas: 05:05 (09:05 UTC)

Prognoza

Raport powstał 3 godziny i 37 minut temu, godzina 05:28 UTC
Prognoza ważna od 20 godzina 06 UTC do 21 godzina 06 UTC
Wiatr 3 kt z kierunków zmiennych
Widzialność: 10 km
bezchmurnie
Przejściowo
od 20 godzina 09 UTC do 20 godzina 12 UTC
Widzialność: 4.8 km
zamglenie
Od 20 godzina 1400 UTC
Wiatr 8 kt od wschodnio-południowy wschód
Widzialność: 10 km
Rozproszone chmury na wysokości 5000 ft

TAF: KRME 200528Z 2006/2106 VRB03KT P6SM SKC TEMPO 2009/2012 3SM BR FM201400 12008KT P6SM SCT050

Obserwacja i prognoza pogody dla ponad 4000 lotnisk (raport METAR i TAF).

Dostępne stacje oznaczono żółtymi i czerwonymi punktami na mapie.

Najedź kursorem aby zobaczyć nazwę stacji.

Kliknij aby zobaczyć obserwacje i prognozy pogody.

Aby zmienić mapę: kliknij na zielony przycisk z czarnym krzyżykiem, aby powiększyć; na zielony przycisk z myślnikiem, aby pomniejszyć; na zielone strzałki, aby przejść do map sąsiednich.


METAR-TAF: